Time;durP1;ratioP1;P1;durP2;ratioP2;P2;SDS_P1;SDS_P2;PMS_P1;PMS_P2;Temp;Humidity;BMP_temperature;BMP_pressure;BME280_temperature;BME280_humidity;BME280_pressure;Samples;Min_cycle;Max_cycle;Signal;HPM_P1;HPM_P2
2021/03/05 00:01:12;;;;;;;20.52;9.30;;;;;;;6.74;64.60;97419.78;4995923;28;20037;-76
2021/03/05 00:03:38;;;;;;;19.98;9.57;;;;;;;7.03;63.79;97430.44;4995043;28;20665;-77
2021/03/05 00:06:03;;;;;;;19.98;10.55;;;;;;;7.00;63.56;97429.06;5011522;28;20068;-76
2021/03/05 00:08:29;;;;;;;20.45;9.25;;;;;;;7.21;64.18;97438.22;5011758;28;20079;-77
2021/03/05 00:10:55;;;;;;;19.35;9.15;;;;;;;7.04;63.94;97434.59;5046640;28;20515;-76
2021/03/05 00:13:22;;;;;;;17.98;9.35;;;;;;;6.98;63.28;97431.09;4994858;28;20024;-76
2021/03/05 00:15:48;;;;;;;19.48;10.05;;;;;;;7.12;64.34;97436.91;4995742;28;20051;-76
2021/03/05 00:18:15;;;;;;;18.48;9.40;;;;;;;7.13;63.23;97435.94;5008985;28;20033;-76
2021/03/05 00:20:47;;;;;;;18.08;9.18;;;;;;;6.90;62.56;97429.56;5028795;28;20036;-76
2021/03/05 00:23:15;;;;;;;21.48;10.27;;;;;;;7.07;62.91;97441.94;4988896;28;20022;-76
2021/03/05 00:25:41;;;;;;;25.83;10.40;;;;;;;7.18;62.62;97441.25;4992439;28;20030;-76
2021/03/05 00:28:07;;;;;;;20.75;9.70;;;;;;;6.90;62.74;97439.13;5028253;28;20029;-76
2021/03/05 00:30:36;;;;;;;22.13;11.80;;;;;;;6.92;62.68;97443.09;4995647;28;20846;-76
2021/03/05 00:33:05;;;;;;;20.52;9.43;;;;;;;6.99;62.47;97442.22;5012322;28;20326;-77
2021/03/05 00:35:30;;;;;;;24.33;11.32;;;;;;;6.89;63.17;97437.56;5011514;28;20032;-76
2021/03/05 00:37:56;;;;;;;21.50;9.88;;;;;;;6.82;63.22;97453.16;5025308;28;20071;-76
2021/03/05 00:40:22;;;;;;;22.45;10.55;;;;;;;7.13;61.49;97446.28;5028396;28;20037;-76
2021/03/05 00:42:49;;;;;;;24.35;11.20;;;;;;;7.00;62.48;97444.59;4990104;28;20517;-76
2021/03/05 00:45:16;;;;;;;24.23;11.25;;;;;;;6.65;63.63;97447.72;5012307;28;20063;-77
2021/03/05 00:47:42;;;;;;;25.05;10.77;;;;;;;6.84;62.25;97445.97;5020503;28;20590;-76
2021/03/05 00:50:09;;;;;;;24.30;10.15;;;;;;;6.49;63.69;97443.84;5025674;28;20061;-76
2021/03/05 00:52:34;;;;;;;25.40;12.43;;;;;;;6.71;63.24;97440.91;5012182;28;20094;-76
2021/03/05 00:55:00;;;;;;;25.35;11.75;;;;;;;6.72;63.48;97448.44;5012550;28;20476;-77
2021/03/05 00:57:25;;;;;;;25.70;11.18;;;;;;;6.57;64.28;97453.94;5009949;28;20037;-76
2021/03/05 00:59:51;;;;;;;27.50;10.85;;;;;;;6.17;64.67;97461.19;5028383;28;20096;-77
2021/03/05 01:02:16;;;;;;;24.25;11.27;;;;;;;6.48;63.31;97468.16;5000652;28;20396;-76
2021/03/05 01:04:44;;;;;;;28.60;12.25;;;;;;;6.74;62.94;97466.34;5046715;28;20057;-76
2021/03/05 01:07:10;;;;;;;23.85;12.07;;;;;;;6.58;63.39;97470.25;4993912;28;20036;-77
2021/03/05 01:09:35;;;;;;;26.58;11.38;;;;;;;6.59;63.39;97474.41;5014724;28;20044;-76
2021/03/05 01:12:01;;;;;;;27.65;12.90;;;;;;;6.62;63.70;97463.66;5028409;28;20066;-76
2021/03/05 01:14:26;;;;;;;24.58;10.98;;;;;;;6.84;63.16;97465.88;5032565;28;20045;-76
2021/03/05 01:16:52;;;;;;;26.77;11.75;;;;;;;6.83;63.01;97470.25;4999080;28;20024;-76
2021/03/05 01:19:18;;;;;;;26.95;11.00;;;;;;;6.75;63.80;97475.69;5050300;28;20132;-76
2021/03/05 01:21:44;;;;;;;26.23;11.60;;;;;;;6.78;63.02;97467.50;5032103;28;20083;-76
2021/03/05 01:24:11;;;;;;;26.42;11.40;;;;;;;6.68;63.07;97467.19;5015789;28;20029;-76
2021/03/05 01:26:40;;;;;;;24.55;10.82;;;;;;;6.60;63.13;97472.63;5030980;28;20041;-76
2021/03/05 01:29:06;;;;;;;27.40;11.63;;;;;;;6.72;63.58;97476.13;5015855;28;20029;-76
2021/03/05 01:31:31;;;;;;;27.17;11.73;;;;;;;6.62;63.97;97470.63;5032251;28;20470;-76
2021/03/05 01:33:57;;;;;;;26.20;10.68;;;;;;;6.45;63.98;97472.94;5032061;28;20037;-77
2021/03/05 01:36:22;;;;;;;29.65;12.18;;;;;;;6.51;62.96;97469.50;5014189;28;20064;-76
2021/03/05 01:38:47;;;;;;;26.20;11.75;;;;;;;6.35;64.26;97476.00;5015769;28;20033;-77
2021/03/05 01:41:13;;;;;;;24.50;11.18;;;;;;;6.64;62.79;97478.97;5028407;28;20037;-76
2021/03/05 01:43:39;;;;;;;28.58;11.70;;;;;;;6.32;63.51;97476.41;5013630;28;20044;-77
2021/03/05 01:46:05;;;;;;;26.38;10.95;;;;;;;6.39;63.35;97474.56;4990308;28;20063;-77
2021/03/05 01:48:32;;;;;;;24.25;11.70;;;;;;;6.18;64.41;97476.47;5012895;28;20364;-76
2021/03/05 01:51:09;;;;;;;24.88;11.27;;;;;;;6.50;63.87;97475.69;4991744;28;20029;-76
2021/03/05 01:53:35;;;;;;;28.88;11.27;;;;;;;6.42;63.40;97468.97;5028365;28;20373;-77
2021/03/05 01:56:01;;;;;;;26.67;10.77;;;;;;;6.39;63.56;97474.56;4995842;28;20078;-76
2021/03/05 01:58:27;;;;;;;28.02;12.13;;;;;;;6.57;63.55;97472.03;5007838;28;20025;-76
2021/03/05 02:00:57;;;;;;;26.08;11.75;;;;;;;6.50;63.64;97468.72;5010471;28;20606;-76
2021/03/05 02:03:22;;;;;;;27.27;11.73;;;;;;;6.55;63.75;97468.88;5010300;28;20124;-76
2021/03/05 02:05:48;;;;;;;23.67;11.65;;;;;;;6.64;63.47;97466.03;5025502;28;20832;-76
2021/03/05 02:08:14;;;;;;;28.65;12.55;;;;;;;6.69;63.28;97463.59;4999214;28;20040;-76
2021/03/05 02:10:40;;;;;;;24.30;10.68;;;;;;;6.57;62.91;97461.69;4998891;28;20033;-76
2021/03/05 02:13:06;;;;;;;25.55;11.07;;;;;;;6.68;63.34;97467.19;5015702;28;20112;-76
2021/03/05 02:15:33;;;;;;;25.73;11.57;;;;;;;6.61;63.43;97471.63;5016476;28;20156;-76
2021/03/05 02:18:31;;;;;;;26.77;11.38;;;;;;;6.38;64.21;97467.81;5032696;28;20058;-76
2021/03/05 02:21:24;;;;;;;26.15;11.75;;;;;;;6.41;63.80;97467.41;5006251;28;20025;-76
2021/03/05 02:24:08;;;;;;;25.90;12.73;;;;;;;6.34;64.50;97467.44;5012493;28;20607;-76
2021/03/05 02:27:07;;;;;;;26.48;11.52;;;;;;;6.45;63.87;97467.78;5015967;28;20033;-76
2021/03/05 02:30:01;;;;;;;27.08;11.23;;;;;;;6.26;64.18;97464.31;5032557;28;20033;-76
2021/03/05 02:32:43;;;;;;;26.60;11.07;;;;;;;6.55;62.47;97463.72;4999001;28;20025;-76
2021/03/05 02:35:09;;;;;;;22.23;10.23;;;;;;;6.77;62.83;97463.34;5015895;28;20479;-76
2021/03/05 02:37:37;;;;;;;26.02;11.40;;;;;;;6.68;63.03;97472.34;5010787;28;20096;-75
2021/03/05 02:40:06;;;;;;;27.92;12.55;;;;;;;6.67;63.06;97463.81;5000294;28;20120;-76
2021/03/05 02:42:51;;;;;;;24.48;11.13;;;;;;;6.49;62.77;97461.94;5000022;28;20448;-76
2021/03/05 02:45:21;;;;;;;24.25;9.65;;;;;;;6.77;61.52;97463.34;5033344;28;20112;-76
2021/03/05 02:47:49;;;;;;;28.58;11.02;;;;;;;6.64;62.54;97466.03;5016972;28;20040;-76
2021/03/05 02:50:18;;;;;;;26.17;11.15;;;;;;;6.58;62.92;97472.84;5016941;28;20032;-76
2021/03/05 02:52:45;;;;;;;25.92;12.40;;;;;;;6.59;62.75;97469.25;5016724;28;20560;-76
2021/03/05 02:55:11;;;;;;;23.38;10.82;;;;;;;6.80;62.61;97469.88;5017117;28;20090;-76
2021/03/05 02:57:43;;;;;;;25.75;10.82;;;;;;;6.40;63.02;97472.78;5016712;28;20035;-76
2021/03/05 03:00:12;;;;;;;23.60;10.60;;;;;;;6.53;62.99;97470.88;5032085;28;20025;-76
2021/03/05 03:02:39;;;;;;;21.85;10.63;;;;;;;6.73;62.75;97469.94;5000456;28;20056;-76
2021/03/05 03:05:05;;;;;;;27.33;10.98;;;;;;;6.81;61.55;97467.06;5016480;28;20072;-76
2021/03/05 03:07:31;;;;;;;26.10;11.57;;;;;;;6.72;63.12;97473.53;5016544;28;20515;-76
2021/03/05 03:09:58;;;;;;;26.58;11.35;;;;;;;6.66;62.99;97474.38;5017062;28;20033;-76
2021/03/05 03:12:24;;;;;;;26.00;11.85;;;;;;;6.76;63.39;97479.88;5016228;28;20094;-76
2021/03/05 03:14:50;;;;;;;24.35;10.15;;;;;;;6.70;63.44;97484.09;5000205;28;20921;-76
2021/03/05 03:17:16;;;;;;;25.95;11.73;;;;;;;6.75;62.61;97479.09;5016721;28;20111;-76
2021/03/05 03:19:50;;;;;;;23.55;10.15;;;;;;;6.58;61.67;97485.78;5033159;28;20047;-76
2021/03/05 03:22:17;;;;;;;25.88;10.73;;;;;;;6.90;61.22;97491.69;4999894;28;20029;-76
2021/03/05 03:24:44;;;;;;;26.75;11.73;;;;;;;6.78;62.06;97493.38;5016467;28;20056;-76
2021/03/05 03:27:09;;;;;;;25.40;10.73;;;;;;;6.84;61.82;97494.34;5016222;28;20030;-76
2021/03/05 03:29:35;;;;;;;23.30;11.10;;;;;;;6.69;62.67;97494.66;4999930;28;20082;-76
2021/03/05 03:32:00;;;;;;;24.10;11.18;;;;;;;6.50;63.76;97507.53;5015615;28;20108;-76
2021/03/05 03:34:26;;;;;;;27.67;11.82;;;;;;;6.70;62.99;97501.41;5032710;28;20029;-76
2021/03/05 03:36:52;;;;;;;28.02;11.98;;;;;;;6.62;63.30;97499.88;5014338;28;20558;-76
2021/03/05 03:39:17;;;;;;;26.13;11.13;;;;;;;6.53;63.53;97508.91;4999729;28;20498;-76
2021/03/05 03:41:43;;;;;;;25.63;11.15;;;;;;;6.63;62.89;97506.66;5016012;28;20120;-76
2021/03/05 03:44:11;;;;;;;25.92;11.02;;;;;;;6.41;64.19;97508.78;5014818;28;20522;-76
2021/03/05 03:46:47;;;;;;;26.05;12.13;;;;;;;6.36;63.70;97512.00;5016109;28;20029;-76
2021/03/05 03:49:17;;;;;;;27.98;12.07;;;;;;;6.25;64.04;97504.88;5016399;28;20029;-76
2021/03/05 03:51:47;;;;;;;27.30;11.27;;;;;;;6.25;64.58;97512.63;4999367;28;20110;-76
2021/03/05 03:54:15;;;;;;;29.88;12.48;;;;;;;6.40;64.69;97517.53;5015991;28;20032;-76
2021/03/05 03:56:42;;;;;;;26.67;11.13;;;;;;;6.60;64.13;97520.00;4998549;28;20032;-76
2021/03/05 03:59:12;;;;;;;25.90;12.23;;;;;;;6.53;63.22;97522.63;5015964;28;20052;-76
2021/03/05 04:01:38;;;;;;;26.45;12.02;;;;;;;6.65;64.04;97524.53;5015343;28;20047;-76
2021/03/05 04:04:05;;;;;;;25.33;11.75;;;;;;;6.72;63.66;97527.88;5015680;28;20045;-76
2021/03/05 04:06:31;;;;;;;30.42;12.13;;;;;;;6.70;63.97;97532.44;5030350;28;20041;-76
2021/03/05 04:08:57;;;;;;;27.48;11.90;;;;;;;6.58;63.63;97529.78;4999336;28;20029;-76
2021/03/05 04:11:23;;;;;;;28.02;12.57;;;;;;;6.63;63.70;97529.13;5015488;28;20033;-76
2021/03/05 04:13:50;;;;;;;25.65;11.40;;;;;;;6.55;64.41;97535.34;5015562;28;20349;-76
2021/03/05 04:16:16;;;;;;;31.60;12.80;;;;;;;6.52;64.13;97536.56;5015861;28;20020;-76
2021/03/05 04:18:44;;;;;;;26.45;11.75;;;;;;;6.51;63.66;97539.34;5032183;28;20348;-76
2021/03/05 04:21:14;;;;;;;29.85;12.73;;;;;;;6.53;63.67;97540.72;5031783;28;20697;-76
2021/03/05 04:23:39;;;;;;;30.52;11.80;;;;;;;6.49;64.16;97543.94;4997181;28;20036;-76
2021/03/05 04:26:05;;;;;;;32.78;13.27;;;;;;;6.40;64.58;97545.97;5031824;28;20029;-76
2021/03/05 04:28:30;;;;;;;29.00;11.45;;;;;;;6.48;63.95;97545.75;5012934;28;20477;-76
2021/03/05 04:30:56;;;;;;;32.40;13.30;;;;;;;6.44;64.83;97538.59;5015451;28;20041;-76
2021/03/05 04:33:21;;;;;;;34.20;14.57;;;;;;;6.48;65.27;97547.53;5015792;28;20387;-76
2021/03/05 04:35:47;;;;;;;30.05;12.73;;;;;;;6.51;64.33;97553.09;4995332;28;20039;-76
2021/03/05 04:38:12;;;;;;;31.38;12.32;;;;;;;6.62;64.44;97543.06;5014503;28;20068;-76
2021/03/05 04:40:37;;;;;;;32.00;12.82;;;;;;;6.62;64.55;97556.78;5031573;28;20033;-76
2021/03/05 04:43:03;;;;;;;31.25;13.65;;;;;;;6.55;64.65;97554.25;5015125;28;20043;-76
2021/03/05 04:45:29;;;;;;;34.33;13.65;;;;;;;6.47;64.67;97554.50;5019653;28;20071;-76
2021/03/05 04:47:54;;;;;;;33.72;13.88;;;;;;;6.47;65.32;97559.66;5019232;28;20078;-76
2021/03/05 04:50:20;;;;;;;30.42;13.48;;;;;;;6.56;64.69;97563.59;5019552;28;20074;-76
2021/03/05 04:52:45;;;;;;;33.25;12.95;;;;;;;6.49;64.66;97573.19;5035593;28;20467;-76
2021/03/05 04:55:11;;;;;;;31.30;13.13;;;;;;;6.44;65.12;97564.47;5019313;28;20414;-76
2021/03/05 04:57:37;;;;;;;30.35;13.23;;;;;;;6.15;65.54;97566.59;5019233;28;20037;-76
2021/03/05 05:00:04;;;;;;;29.95;11.73;;;;;;;6.16;65.31;97568.97;5035239;28;20036;-76
2021/03/05 05:02:29;;;;;;;34.17;14.05;;;;;;;6.31;65.58;97568.72;5018957;28;20665;-76
2021/03/05 05:04:55;;;;;;;31.88;13.48;;;;;;;6.15;65.42;97566.59;5001521;28;20053;-76
2021/03/05 05:07:20;;;;;;;29.30;11.55;;;;;;;5.90;65.76;97577.59;5035237;28;20037;-76
2021/03/05 05:09:46;;;;;;;29.75;12.82;;;;;;;5.86;66.79;97588.53;5033685;28;20037;-77
2021/03/05 05:12:11;;;;;;;28.00;13.65;;;;;;;6.06;65.52;97583.34;5018523;28;20484;-76
2021/03/05 05:14:36;;;;;;;31.27;13.20;;;;;;;5.87;65.64;97579.81;5018789;28;20352;-76
2021/03/05 05:17:03;;;;;;;24.77;11.25;;;;;;;5.81;65.00;97579.63;4997994;28;20661;-76
2021/03/05 05:19:29;;;;;;;31.70;12.80;;;;;;;5.72;65.32;97574.88;5019027;28;20025;-77
2021/03/05 05:21:54;;;;;;;27.67;11.32;;;;;;;5.86;65.22;97584.19;5018371;28;20039;-76
2021/03/05 05:24:20;;;;;;;30.05;12.52;;;;;;;5.89;65.16;97580.38;5018547;28;20391;-76
2021/03/05 05:26:45;;;;;;;28.52;12.55;;;;;;;5.92;64.21;97592.91;5019450;28;20029;-76
2021/03/05 05:29:11;;;;;;;28.48;12.25;;;;;;;5.82;64.95;97590.75;5018535;28;20021;-76
2021/03/05 05:31:36;;;;;;;27.38;11.80;;;;;;;5.79;65.35;97589.38;5011872;28;20057;-76
2021/03/05 05:34:01;;;;;;;32.50;13.30;;;;;;;5.84;64.18;97598.28;5017989;28;20488;-76
2021/03/05 05:36:29;;;;;;;26.45;11.85;;;;;;;5.71;65.10;97594.75;5035171;28;20107;-76
2021/03/05 05:38:54;;;;;;;30.25;11.80;;;;;;;5.46;66.69;97599.75;5018256;28;20056;-76
2021/03/05 05:41:23;;;;;;;30.67;13.02;;;;;;;5.13;67.59;97605.72;5014594;28;20071;-76
2021/03/05 05:43:49;;;;;;;31.48;12.82;;;;;;;5.55;66.37;97602.91;5029149;28;20025;-76
2021/03/05 05:46:17;;;;;;;26.67;10.95;;;;;;;5.27;66.95;97601.34;5001760;28;20041;-76
2021/03/05 05:48:45;;;;;;;27.13;12.32;;;;;;;5.40;66.69;97601.34;5018423;28;20060;-76
2021/03/05 05:51:22;;;;;;;29.77;11.73;;;;;;;5.40;66.23;97603.94;5034521;28;20444;-76
2021/03/05 05:53:48;;;;;;;24.83;12.40;;;;;;;5.50;65.78;97610.47;5001589;28;20087;-76
2021/03/05 05:56:19;;;;;;;29.17;12.55;;;;;;;5.36;64.99;97620.81;5034621;28;20041;-76
2021/03/05 05:58:44;;;;;;;26.60;10.98;;;;;;;5.35;66.15;97611.50;5001340;28;20039;-76
2021/03/05 06:01:10;;;;;;;25.27;12.02;;;;;;;5.67;65.14;97610.84;5033411;28;20116;-76
2021/03/05 06:03:37;;;;;;;27.17;13.32;;;;;;;5.64;65.27;97614.66;5033362;28;20036;-76
2021/03/05 06:06:06;;;;;;;26.75;11.88;;;;;;;5.54;64.80;97616.84;5000406;28;20060;-76
2021/03/05 06:08:32;;;;;;;30.77;13.98;;;;;;;5.36;66.06;97620.81;5016677;28;20124;-76
2021/03/05 06:10:58;;;;;;;30.55;12.85;;;;;;;5.32;66.74;97618.84;5033205;28;20159;-76
2021/03/05 06:13:27;;;;;;;29.33;13.48;;;;;;;5.41;66.38;97621.00;5010274;28;20037;-76
2021/03/05 06:16:15;;;;;;;31.13;13.48;;;;;;;5.09;66.35;97630.34;4999990;28;20471;-76
2021/03/05 06:18:42;;;;;;;32.00;13.82;;;;;;;5.12;66.65;97629.16;5016957;28;20702;-76
2021/03/05 06:21:08;;;;;;;28.42;12.75;;;;;;;5.19;66.46;97630.75;5050760;28;20032;-76
2021/03/05 06:23:36;;;;;;;31.98;12.93;;;;;;;5.17;66.61;97627.56;5016887;28;20368;-76
2021/03/05 06:26:03;;;;;;;33.20;14.98;;;;;;;5.20;66.22;97628.97;5017681;28;20031;-76
2021/03/05 06:28:28;;;;;;;31.48;14.10;;;;;;;5.34;65.45;97629.75;5033871;28;20545;-76
2021/03/05 06:30:54;;;;;;;31.00;12.85;;;;;;;5.05;66.99;97629.97;4997851;28;20034;-76
2021/03/05 06:33:28;;;;;;;30.17;13.07;;;;;;;5.12;66.72;97634.31;5017526;28;20037;-76
2021/03/05 06:35:55;;;;;;;27.95;12.30;;;;;;;4.94;67.45;97638.28;4997266;28;20044;-76
2021/03/05 06:38:41;;;;;;;30.45;12.73;;;;;;;4.67;67.31;97645.94;5033796;28;20068;-76
2021/03/05 06:41:35;;;;;;;30.25;12.82;;;;;;;4.54;67.66;97655.44;5017101;28;20029;-76
2021/03/05 06:44:03;;;;;;;27.60;11.20;;;;;;;5.03;67.32;97655.16;5009308;28;20593;-76
2021/03/05 06:46:32;;;;;;;24.42;10.23;;;;;;;4.64;66.42;97658.44;5033687;28;20033;-76
2021/03/05 06:48:58;;;;;;;22.50;10.13;;;;;;;4.78;66.84;97656.69;5015993;28;20041;-76
2021/03/05 06:51:24;;;;;;;27.02;9.68;;;;;;;4.83;67.56;97664.63;5033543;28;20041;-76
2021/03/05 06:54:01;;;;;;;21.05;9.27;;;;;;;4.86;65.94;97664.25;5001057;28;20029;-76
2021/03/05 06:56:28;;;;;;;24.52;10.75;;;;;;;5.19;65.36;97666.09;5011867;28;20059;-76
2021/03/05 06:59:13;;;;;;;20.65;9.75;;;;;;;4.80;65.38;97667.63;5015935;28;20144;-76
2021/03/05 07:01:46;;;;;;;;;;;;;;;4.56;67.12;97674.91;5000605;28;20029;-76
2021/03/05 07:04:13;;;;;;;25.63;10.75;;;;;;;4.78;66.65;97674.75;5016563;28;20317;-76
2021/03/05 07:06:42;;;;;;;25.27;9.88;;;;;;;4.83;67.21;97673.19;5000189;28;20048;-76
2021/03/05 07:09:10;;;;;;;26.58;10.57;;;;;;;4.99;66.68;97671.25;5014738;28;20036;-76
2021/03/05 07:11:35;;;;;;;25.75;10.45;;;;;;;4.92;65.62;97676.38;4977917;28;20037;-76
2021/03/05 07:14:03;;;;;;;23.67;10.70;;;;;;;4.76;66.10;97679.31;5014410;28;20054;-76
2021/03/05 07:16:47;;;;;;;19.40;9.00;;;;;;;4.66;66.00;97682.25;5031452;28;20047;-76
2021/03/05 07:19:15;;;;;;;24.67;10.70;;;;;;;5.06;65.71;97683.16;4999533;28;20029;-76
2021/03/05 07:21:43;;;;;;;21.88;9.60;;;;;;;5.10;65.26;97685.34;4992108;28;20033;-76
2021/03/05 07:24:11;;;;;;;19.75;8.43;;;;;;;5.06;64.91;97687.53;5010609;28;20034;-76
2021/03/05 07:26:44;;;;;;;21.77;9.32;;;;;;;5.28;63.83;97688.16;5007151;28;20025;-77
2021/03/05 07:29:20;;;;;;;19.10;7.88;;;;;;;5.49;64.75;97696.72;5024515;28;20042;-76
2021/03/05 07:31:48;;;;;;;15.82;7.28;;;;;;;5.60;63.30;97696.91;5005835;28;20428;-76
2021/03/05 07:34:18;;;;;;;16.50;7.30;;;;;;;5.46;62.71;97702.25;4992153;28;20064;-76
2021/03/05 07:36:47;;;;;;;17.52;7.95;;;;;;;5.53;62.57;97706.44;4993472;28;20588;-76
2021/03/05 07:39:20;;;;;;;12.25;6.00;;;;;;;5.51;62.35;97710.22;5013540;28;20052;-76
2021/03/05 07:41:49;;;;;;;13.60;7.05;;;;;;;5.68;62.28;97720.94;4990468;28;20039;-76
2021/03/05 07:44:14;;;;;;;14.20;5.47;;;;;;;5.06;62.93;97708.97;5023080;28;20048;-76
2021/03/05 07:46:40;;;;;;;13.43;6.95;;;;;;;5.14;62.70;97709.75;4997270;28;20030;-76
2021/03/05 07:49:06;;;;;;;14.43;7.47;;;;;;;5.28;62.61;97713.97;4992471;28;20052;-76
2021/03/05 07:51:32;;;;;;;12.95;6.30;;;;;;;5.54;62.52;97715.00;4992767;28;20469;-77
2021/03/05 07:53:58;;;;;;;15.23;6.40;;;;;;;5.46;61.60;97722.94;5028507;28;20108;-76
2021/03/05 07:56:42;;;;;;;17.40;8.38;;;;;;;5.37;61.59;97722.31;5008599;28;20044;-76
2021/03/05 07:59:08;;;;;;;14.38;7.10;;;;;;;5.67;61.55;97729.69;5041045;28;20069;-76
2021/03/05 08:01:53;;;;;;;15.40;6.78;;;;;;;5.10;62.22;97739.56;5007856;28;20326;-76
2021/03/05 08:04:18;;;;;;;15.13;6.13;;;;;;;5.66;61.33;97739.22;5008207;28;20277;-76
2021/03/05 08:06:44;;;;;;;11.50;5.97;;;;;;;5.75;61.14;97738.03;5011915;28;20402;-76
2021/03/05 08:09:12;;;;;;;13.50;6.03;;;;;;;5.52;61.27;97740.19;5012092;28;20403;-76
2021/03/05 08:11:39;;;;;;;14.73;6.13;;;;;;;5.59;61.10;97748.78;4992602;28;20466;-77
2021/03/05 08:14:25;;;;;;;13.98;5.63;;;;;;;5.53;61.56;97749.56;4995959;28;20104;-76
2021/03/05 08:16:52;;;;;;;17.65;6.45;;;;;;;5.69;61.73;97754.34;5028550;28;20037;-77
2021/03/05 08:19:17;;;;;;;14.55;6.03;;;;;;;5.62;62.61;97753.53;5028869;28;20036;-76
2021/03/05 08:21:57;;;;;;;12.85;5.55;;;;;;;5.25;61.80;97747.94;5023626;28;20384;-77
2021/03/05 08:24:28;;;;;;;14.10;6.43;;;;;;;5.24;62.09;97748.91;5027224;28;20144;-76
2021/03/05 08:27:10;;;;;;;14.30;5.85;;;;;;;5.33;62.15;97749.50;5027860;28;20507;-76
2021/03/05 08:29:53;;;;;;;14.57;5.88;;;;;;;5.20;61.91;97753.66;5024817;28;20116;-76
2021/03/05 08:32:33;;;;;;;13.27;6.07;;;;;;;5.31;61.41;97747.13;5044047;28;20029;-76
2021/03/05 08:35:05;;;;;;;11.50;5.60;;;;;;;5.72;60.95;97751.34;5021901;28;20033;-76
2021/03/05 08:37:32;;;;;;;12.68;6.53;;;;;;;5.69;61.07;97749.19;5024179;28;20427;-76
2021/03/05 08:40:10;;;;;;;16.25;5.75;;;;;;;5.33;62.42;97760.66;5027914;28;20472;-77
2021/03/05 08:42:39;;;;;;;11.73;6.30;;;;;;;5.46;62.93;97761.66;5021725;28;20037;-76
2021/03/05 08:45:14;;;;;;;20.05;6.10;;;;;;;5.22;62.24;97768.97;5021657;28;20029;-77
2021/03/05 08:47:42;;;;;;;15.07;6.50;;;;;;;5.33;62.90;97765.00;5027392;28;20037;-77
2021/03/05 08:50:09;;;;;;;11.00;5.57;;;;;;;5.27;63.04;97764.00;5011203;28;20163;-77
2021/03/05 08:52:36;;;;;;;12.82;5.55;;;;;;;4.94;63.60;97769.88;4994011;28;20029;-77
2021/03/05 08:55:06;;;;;;;13.43;6.80;;;;;;;5.34;62.89;97769.19;4994893;28;20029;-77
2021/03/05 08:57:58;;;;;;;15.50;8.35;;;;;;;5.07;63.27;97782.84;5022216;28;20446;-76
2021/03/05 09:00:31;;;;;;;14.35;6.00;;;;;;;5.31;62.77;97780.69;5000452;28;20053;-77
2021/03/05 09:03:07;;;;;;;16.63;6.30;;;;;;;5.15;63.15;97787.00;5027753;28;20288;-77
2021/03/05 09:05:34;;;;;;;14.00;6.53;;;;;;;5.77;62.31;97792.88;5007919;28;20464;-76
2021/03/05 09:08:00;;;;;;;13.68;5.15;;;;;;;5.67;61.54;97794.28;5004088;28;20037;-76
2021/03/05 09:10:46;;;;;;;15.07;6.72;;;;;;;5.25;62.16;97790.03;5013751;28;20068;-76
2021/03/05 09:13:17;;;;;;;17.75;6.47;;;;;;;6.10;60.70;97792.13;4997441;28;20036;-76
2021/03/05 09:15:45;;;;;;;14.88;6.65;;;;;;;5.77;61.77;97792.88;5004621;28;20612;-76
2021/03/05 09:18:13;;;;;;;17.98;7.97;;;;;;;5.78;60.43;97794.47;5024653;28;20040;-76
2021/03/05 09:21:00;;;;;;;31.20;7.22;;;;;;;5.92;60.16;97802.25;5024095;28;20083;-77
2021/03/05 09:23:29;;;;;;;15.80;6.22;;;;;;;6.13;59.04;97807.22;4986364;28;20025;-77
2021/03/05 09:25:57;;;;;;;15.73;6.00;;;;;;;6.01;60.44;97803.66;4996671;28;20559;-76
2021/03/05 09:28:24;;;;;;;14.40;6.53;;;;;;;5.66;60.06;97803.81;5024351;28;20557;-76
2021/03/05 09:30:55;;;;;;;17.08;6.05;;;;;;;5.82;60.37;97807.81;5026291;28;20488;-76
2021/03/05 09:33:32;;;;;;;13.93;6.35;;;;;;;5.82;60.49;97810.38;5007655;28;20033;-76
2021/03/05 09:36:12;;;;;;;17.13;6.75;;;;;;;5.60;60.69;97802.00;5005091;28;20036;-77
2021/03/05 09:38:41;;;;;;;14.65;6.43;;;;;;;6.12;58.98;97815.22;4986435;28;20056;-76
2021/03/05 09:41:20;;;;;;;17.77;7.32;;;;;;;6.13;59.27;97811.63;5018631;28;20037;-76
2021/03/05 09:44:03;;;;;;;17.50;7.60;;;;;;;6.09;59.76;97816.38;4983301;28;20095;-76
2021/03/05 09:46:32;;;;;;;19.52;7.35;;;;;;;6.26;59.82;97823.75;5008775;28;20045;-76
2021/03/05 09:48:58;;;;;;;14.70;6.50;;;;;;;6.12;60.08;97816.00;5014554;28;20026;-77
2021/03/05 09:51:25;;;;;;;15.32;7.07;;;;;;;5.92;60.11;97820.34;5003977;28;20738;-77
2021/03/05 09:53:55;;;;;;;12.95;6.20;;;;;;;6.05;60.74;97820.38;4998054;28;20065;-77
2021/03/05 09:56:26;;;;;;;14.38;6.40;;;;;;;6.37;60.15;97828.31;5009387;28;20476;-76
2021/03/05 09:59:02;;;;;;;17.15;7.50;;;;;;;6.41;59.84;97829.50;4999986;28;20064;-77
2021/03/05 10:01:34;;;;;;;15.80;7.00;;;;;;;6.11;58.80;97827.31;5022066;28;20038;-77
2021/03/05 10:04:01;;;;;;;16.95;7.57;;;;;;;6.68;58.84;97826.84;4995993;28;20116;-77
2021/03/05 10:06:28;;;;;;;13.52;6.82;;;;;;;6.68;59.04;97821.69;5026316;28;20133;-76
2021/03/05 10:09:05;;;;;;;16.27;7.05;;;;;;;6.00;60.04;97836.47;4993185;28;20511;-76
2021/03/05 10:11:36;;;;;;;16.00;7.18;;;;;;;6.45;57.98;97835.06;5025823;28;20087;-76
2021/03/05 10:14:21;;;;;;;14.27;6.60;;;;;;;6.41;58.42;97839.03;4994938;28;20065;-77
2021/03/05 10:16:47;;;;;;;15.15;6.55;;;;;;;6.73;58.82;97840.00;5028557;28;20356;-77
2021/03/05 10:19:17;;;;;;;14.20;6.28;;;;;;;6.35;58.76;97841.44;5009565;28;20567;-77
2021/03/05 10:21:43;;;;;;;15.15;6.35;;;;;;;6.34;59.37;97849.38;4992051;28;20037;-77
2021/03/05 10:24:11;;;;;;;16.70;6.38;;;;;;;6.35;58.04;97854.38;5010496;28;20034;-77
2021/03/05 10:26:37;;;;;;;20.23;7.32;;;;;;;6.32;58.93;97846.22;5006266;28;20431;-77
2021/03/05 10:29:07;;;;;;;18.95;8.43;;;;;;;6.51;59.41;97850.59;5010530;28;20052;-77
2021/03/05 10:31:45;;;;;;;14.57;6.13;;;;;;;6.38;58.72;97850.59;5003443;28;20542;-76
2021/03/05 10:34:33;;;;;;;17.35;6.70;;;;;;;5.96;59.79;97857.75;5006532;28;20341;-76
2021/03/05 10:37:00;;;;;;;17.48;7.35;;;;;;;5.76;59.43;97862.88;5004849;28;20041;-76
2021/03/05 10:39:28;;;;;;;18.50;8.23;;;;;;;5.55;60.67;97866.38;5007117;28;20040;-76
2021/03/05 10:42:01;;;;;;;20.48;9.43;;;;;;;5.23;61.75;97859.13;5025755;28;20547;-76
2021/03/05 10:44:29;;;;;;;14.13;7.15;;;;;;;5.77;60.82;97861.84;5025382;28;20122;-77
2021/03/05 10:46:56;;;;;;;16.95;6.65;;;;;;;5.93;60.55;97871.03;5009855;28;20037;-76
2021/03/05 10:49:24;;;;;;;15.13;6.80;;;;;;;5.80;59.75;97877.75;5026208;28;20037;-76
2021/03/05 10:51:50;;;;;;;15.85;6.88;;;;;;;5.84;60.47;97875.59;5008924;28;20033;-76
2021/03/05 10:54:15;;;;;;;14.63;6.45;;;;;;;5.95;60.13;97887.16;5009847;28;20044;-77
2021/03/05 10:56:41;;;;;;;14.35;6.72;;;;;;;6.03;59.13;97892.13;5008424;28;20030;-76
2021/03/05 10:59:08;;;;;;;12.90;6.00;;;;;;;5.85;60.15;97892.69;5009203;28;20381;-75
2021/03/05 11:01:34;;;;;;;25.27;10.35;;;;;;;5.84;59.43;97895.47;4993366;28;20529;-77
2021/03/05 11:04:00;;;;;;;15.68;6.50;;;;;;;6.33;58.91;97886.59;4991148;28;20099;-77
2021/03/05 11:06:25;;;;;;;19.92;9.75;;;;;;;6.05;59.24;97895.34;5008881;28;20084;-76
2021/03/05 11:08:51;;;;;;;15.02;7.05;;;;;;;6.49;58.02;97899.13;5008651;28;20511;-77
2021/03/05 11:11:16;;;;;;;21.52;7.70;;;;;;;6.38;58.73;97894.56;5024303;28;20034;-76
2021/03/05 11:13:41;;;;;;;19.90;10.27;;;;;;;6.26;57.66;97898.75;5008892;28;20123;-77
2021/03/05 11:16:07;;;;;;;13.55;6.30;;;;;;;6.11;58.99;97884.19;5008875;28;20038;-77
2021/03/05 11:18:33;;;;;;;17.48;7.80;;;;;;;6.59;58.83;97887.59;4993077;28;20067;-77
2021/03/05 11:20:59;;;;;;;26.00;12.35;;;;;;;6.09;57.82;97891.38;5009488;28;20091;-76
2021/03/05 11:23:24;;;;;;;15.90;7.55;;;;;;;6.13;58.32;97895.13;5026182;28;20041;-76
2021/03/05 11:25:51;;;;;;;14.05;6.70;;;;;;;6.45;58.31;97899.75;5021349;28;20034;-77
2021/03/05 11:28:17;;;;;;;13.65;6.18;;;;;;;6.23;56.31;97891.38;4992844;28;20071;-76
2021/03/05 11:30:45;;;;;;;17.50;7.43;;;;;;;6.07;57.84;97898.53;5005984;28;20409;-76
2021/03/05 11:33:11;;;;;;;14.70;6.88;;;;;;;6.03;58.23;97894.72;5018614;28;20040;-76
2021/03/05 11:35:37;;;;;;;18.70;8.45;;;;;;;6.39;58.09;97903.91;5008597;28;20041;-77
2021/03/05 11:38:03;;;;;;;18.42;8.00;;;;;;;6.57;58.27;97903.31;5025090;28;20500;-77